createdAt,value
2022-08-09T00:31:50.457Z,18.70
2022-08-09T00:33:54.174Z,23.80
2022-08-09T00:36:22.494Z,21.27
2022-08-09T00:38:56.807Z,21.60
2022-08-09T00:44:16.958Z,24.33
2022-08-09T00:44:26.637Z,23.05
2022-08-09T00:46:55.843Z,21.40
2022-08-09T00:49:25.223Z,21.73
2022-08-09T00:51:57.168Z,19.75
2022-08-09T00:54:31.406Z,21.70
2022-08-09T00:57:02.438Z,23.63
2022-08-09T00:59:41.012Z,23.75
2022-08-09T01:02:20.210Z,22.33
2022-08-09T01:04:53.193Z,23.75
2022-08-09T01:07:37.910Z,20.70
2022-08-09T01:10:37.197Z,17.65
2022-08-09T01:24:01.957Z,19.40
2022-08-09T01:27:08.830Z,16.60
2022-08-09T01:29:56.305Z,18.88
2022-08-09T01:32:33.601Z,18.08
2022-08-09T01:35:28.304Z,19.77
2022-08-09T01:38:07.684Z,18.67
2022-08-09T01:40:42.345Z,18.42
2022-08-09T01:43:11.065Z,18.33
2022-08-09T01:45:44.741Z,19.58
2022-08-09T01:48:16.564Z,15.85
2022-08-09T01:50:55.094Z,21.50
2022-08-09T01:53:23.893Z,19.95
2022-08-09T01:55:57.196Z,19.50
2022-08-09T01:58:26.292Z,20.40
2022-08-09T02:00:57.344Z,21.17
2022-08-09T02:03:24.983Z,17.25
2022-08-09T02:06:03.932Z,16.42
2022-08-09T02:08:58.998Z,17.95
2022-08-09T02:11:42.851Z,15.35
2022-08-09T02:14:15.877Z,17.25
2022-08-09T02:17:14.569Z,16.42
2022-08-09T02:19:43.251Z,16.08
2022-08-09T02:22:35.941Z,20.92
2022-08-09T02:25:10.052Z,21.23
2022-08-09T02:28:00.361Z,23.35
2022-08-09T02:30:44.612Z,18.27
2022-08-09T02:33:18.801Z,21.27
2022-08-09T02:36:03.002Z,19.25
2022-08-09T02:38:35.661Z,18.02
2022-08-09T02:41:08.317Z,22.70
2022-08-09T02:43:54.010Z,21.88
2022-08-09T02:46:28.443Z,21.48
2022-08-09T02:49:01.085Z,20.50
2022-08-09T02:51:39.975Z,25.52
2022-08-09T02:54:10.463Z,22.75
2022-08-09T02:56:41.657Z,26.77
2022-08-09T02:59:26.394Z,26.23
2022-08-09T03:02:12.248Z,26.27
2022-08-09T03:04:46.079Z,26.38
2022-08-09T03:07:19.352Z,24.10
2022-08-09T03:09:54.474Z,26.67
2022-08-09T03:12:25.269Z,24.10
2022-08-09T03:14:53.768Z,22.98
2022-08-09T03:17:27.194Z,21.08
2022-08-09T03:20:03.506Z,24.77
2022-08-09T03:22:42.184Z,26.98
2022-08-09T03:25:25.898Z,25.85
2022-08-09T03:27:55.474Z,25.60
2022-08-09T03:30:30.015Z,28.67
2022-08-09T03:33:05.573Z,24.98
2022-08-09T03:36:11.237Z,26.17
2022-08-09T03:38:29.119Z,25.83
2022-08-09T03:40:58.170Z,25.10
2022-08-09T03:43:31.956Z,23.75
2022-08-09T03:46:05.178Z,28.45
2022-08-09T03:48:51.330Z,29.33
2022-08-09T03:51:57.700Z,27.88
2022-08-09T03:54:10.749Z,29.08
2022-08-09T03:56:41.314Z,27.52
2022-08-09T03:59:17.289Z,28.63
2022-08-09T04:01:59.153Z,29.17
2022-08-09T04:04:36.094Z,28.58
2022-08-09T04:07:06.017Z,29.58
2022-08-09T04:09:44.445Z,29.95
2022-08-09T04:12:30.895Z,29.15
2022-08-09T04:15:02.097Z,30.80
2022-08-09T04:17:39.401Z,31.45
2022-08-09T04:20:11.095Z,30.73
2022-08-09T04:22:41.255Z,30.63
2022-08-09T04:25:13.045Z,32.57
2022-08-09T04:27:42.861Z,25.95
2022-08-09T04:30:18.036Z,30.92
2022-08-09T04:32:47.912Z,31.40
2022-08-09T04:35:15.349Z,29.70
2022-08-09T04:37:46.439Z,30.98
2022-08-09T04:40:18.956Z,27.55
2022-08-09T04:55:57.912Z,25.98
2022-08-09T05:13:38.626Z,25.10
2022-08-09T05:16:07.848Z,24.30
2022-08-09T05:18:55.540Z,26.90
2022-08-09T05:21:24.563Z,24.90
2022-08-09T05:37:06.841Z,20.60
2022-08-09T05:50:23.463Z,29.92
2022-08-09T05:52:33.259Z,19.35
2022-08-09T05:55:07.012Z,19.75
2022-08-09T05:57:55.840Z,19.55
2022-08-09T06:00:29.844Z,20.98
2022-08-09T06:02:58.926Z,18.63
2022-08-09T06:05:57.053Z,20.08
2022-08-09T06:08:19.695Z,19.08
2022-08-09T06:10:52.589Z,16.02
2022-08-09T06:13:20.968Z,15.65
2022-08-09T06:15:52.384Z,17.90
2022-08-09T06:20:57.735Z,17.15
2022-08-09T06:23:57.689Z,18.30
2022-08-09T06:26:20.533Z,18.17
2022-08-09T06:29:01.146Z,15.83
2022-08-09T06:31:40.458Z,14.27
2022-08-09T06:34:22.524Z,14.48
2022-08-09T06:36:57.492Z,17.40
2022-08-09T06:39:48.707Z,14.25
2022-08-09T06:42:25.029Z,21.63
2022-08-09T06:44:55.510Z,13.38
2022-08-09T06:47:24.319Z,13.70
2022-08-09T06:50:14.730Z,11.73
2022-08-09T06:52:46.924Z,12.45
2022-08-09T06:55:16.059Z,11.48
2022-08-09T06:58:02.520Z,11.50
2022-08-09T07:00:56.455Z,13.07
2022-08-09T07:03:18.791Z,12.45
2022-08-09T07:06:02.685Z,8.50
2022-08-09T07:08:32.935Z,15.20
2022-08-09T07:11:03.596Z,12.02
2022-08-09T07:16:42.172Z,13.68
2022-08-09T07:18:58.615Z,11.15
2022-08-09T07:21:25.586Z,13.45
2022-08-09T07:23:58.507Z,13.25
2022-08-09T07:26:26.033Z,10.30
2022-08-09T07:29:09.369Z,9.40
2022-08-09T07:31:45.204Z,10.02
2022-08-09T07:34:20.852Z,12.48
2022-08-09T07:36:49.438Z,11.57
2022-08-09T07:39:20.557Z,7.32
2022-08-09T07:42:05.113Z,15.60
2022-08-09T07:44:51.187Z,9.43
2022-08-09T07:47:21.059Z,11.75
2022-08-09T07:49:52.380Z,9.55
2022-08-09T07:52:33.164Z,14.10
2022-08-09T07:55:03.980Z,12.32
2022-08-09T07:57:36.401Z,8.70
2022-08-09T08:00:08.951Z,8.30
2022-08-09T08:02:36.722Z,11.23
2022-08-09T08:09:00.980Z,9.98
2022-08-09T08:10:34.415Z,13.23
2022-08-09T08:13:03.873Z,8.95
2022-08-09T08:15:35.590Z,8.45
2022-08-09T08:23:06.618Z,6.28
2022-08-09T08:25:46.166Z,8.05
2022-08-09T08:28:15.457Z,7.03
2022-08-09T08:30:43.982Z,7.88
2022-08-09T08:33:11.848Z,5.13
2022-08-09T08:36:00.203Z,6.97
2022-08-09T08:43:23.800Z,3.83
2022-08-09T08:46:31.780Z,5.88
2022-08-09T08:48:53.674Z,5.45
2022-08-09T08:51:24.987Z,10.45
2022-08-09T08:54:02.965Z,5.03
2022-08-09T08:56:35.312Z,4.93
2022-08-09T08:59:07.642Z,3.70
2022-08-09T09:01:52.018Z,5.82
2022-08-09T09:04:27.004Z,4.13
2022-08-09T09:06:58.158Z,3.13
2022-08-09T09:09:58.488Z,4.93
2022-08-09T09:12:19.262Z,3.10
2022-08-09T09:14:49.881Z,4.78
2022-08-09T09:17:18.897Z,3.63
2022-08-09T09:19:48.191Z,2.85
2022-08-09T09:22:26.926Z,4.80
2022-08-09T09:26:00.429Z,6.07
2022-08-09T09:28:03.563Z,4.32
2022-08-09T09:30:40.212Z,4.20
2022-08-09T09:33:16.195Z,6.15
2022-08-09T09:36:20.500Z,5.28
2022-08-09T09:38:56.989Z,8.18
2022-08-09T09:41:24.166Z,9.23
2022-08-09T09:44:11.547Z,6.25
2022-08-09T09:46:45.833Z,5.35
2022-08-09T09:49:31.748Z,4.75
2022-08-09T09:52:16.276Z,9.52
2022-08-09T09:55:16.011Z,6.55
2022-08-09T09:58:19.288Z,6.47
2022-08-09T10:00:55.182Z,3.47
2022-08-09T10:03:57.959Z,6.47
2022-08-09T10:06:28.596Z,3.92
2022-08-09T10:09:12.006Z,3.25
2022-08-09T10:12:04.457Z,3.08
2022-08-09T10:14:40.081Z,2.63
2022-08-09T10:17:38.978Z,3.60
2022-08-09T10:20:17.614Z,3.05
2022-08-09T10:23:00.371Z,3.15
2022-08-09T10:25:34.706Z,3.05
2022-08-09T10:28:15.401Z,2.35
2022-08-09T10:32:27.760Z,5.13
2022-08-09T10:34:07.935Z,3.35
2022-08-09T10:36:22.407Z,4.03
2022-08-09T10:38:56.852Z,6.38
2022-08-09T10:41:27.859Z,5.22
2022-08-09T10:44:01.505Z,3.95
2022-08-09T10:47:00.527Z,4.75
2022-08-09T10:50:10.155Z,2.75
2022-08-09T10:53:10.314Z,3.60
2022-08-09T10:55:58.795Z,4.35
2022-08-09T10:58:33.689Z,4.50
2022-08-09T11:03:02.999Z,2.83
2022-08-09T11:04:19.457Z,3.13
2022-08-09T11:07:03.802Z,3.72
2022-08-09T11:09:47.836Z,4.15
2022-08-09T11:12:20.149Z,3.33
2022-08-09T11:14:58.973Z,3.75
2022-08-09T11:17:26.282Z,8.03
2022-08-09T11:20:20.058Z,4.10
2022-08-09T11:22:56.643Z,4.53
2022-08-09T11:25:44.694Z,3.60
2022-08-09T11:28:55.815Z,3.53
2022-08-09T11:31:43.603Z,2.45
2022-08-09T11:34:35.117Z,4.53
2022-08-09T11:37:07.492Z,3.42
2022-08-09T11:40:05.335Z,2.97
2022-08-09T11:42:51.531Z,4.63
2022-08-09T11:45:42.097Z,6.43
2022-08-09T11:48:26.306Z,4.03
2022-08-09T11:52:48.842Z,3.35
2022-08-09T11:53:59.066Z,4.50
2022-08-09T11:56:41.961Z,4.70
2022-08-09T11:59:11.728Z,3.03
2022-08-09T12:02:18.382Z,5.15
2022-08-09T12:04:32.258Z,4.60
2022-08-09T12:07:04.552Z,7.30
2022-08-09T12:09:35.514Z,3.42
2022-08-09T12:12:11.966Z,5.57
2022-08-09T12:15:03.653Z,4.40
2022-08-09T12:17:42.311Z,3.08
2022-08-09T12:20:24.172Z,4.78
2022-08-09T12:23:00.531Z,6.30
2022-08-09T12:25:37.511Z,9.35
2022-08-09T12:29:13.475Z,4.30
2022-08-09T12:31:11.121Z,3.17
2022-08-09T12:34:00.865Z,3.30
2022-08-09T12:36:32.171Z,3.92
2022-08-09T12:39:00.836Z,5.68
2022-08-09T12:41:38.363Z,2.47
2022-08-09T12:44:10.017Z,3.25
2022-08-09T12:46:49.275Z,4.47
2022-08-09T12:49:18.931Z,3.30
2022-08-09T12:52:02.712Z,3.17
2022-08-09T12:55:03.134Z,6.40
2022-08-09T12:57:46.370Z,4.35
2022-08-09T13:00:18.384Z,2.15
2022-08-09T13:02:53.435Z,5.32
2022-08-09T13:08:21.016Z,5.15
2022-08-09T13:11:23.339Z,4.07
2022-08-09T13:14:38.071Z,3.17
2022-08-09T13:16:47.762Z,5.93
2022-08-09T13:20:09.709Z,4.43
2022-08-09T13:23:00.686Z,2.67
2022-08-09T13:25:13.873Z,2.60
2022-08-09T13:27:54.444Z,4.00
2022-08-09T13:30:49.287Z,3.53
2022-08-09T13:36:24.080Z,4.28
2022-08-09T13:38:55.624Z,3.70
2022-08-09T13:44:16.314Z,2.17
2022-08-09T13:47:25.274Z,4.45
2022-08-09T13:49:37.714Z,3.83
2022-08-09T13:52:08.905Z,4.25
2022-08-09T13:54:36.243Z,2.42
2022-08-09T13:57:14.541Z,4.00
2022-08-09T14:12:57.111Z,3.85
2022-08-09T14:35:52.742Z,2.28
2022-08-09T14:38:20.355Z,4.85
2022-08-09T14:41:00.885Z,3.83
2022-08-09T14:43:46.812Z,3.13
2022-08-09T14:47:01.154Z,3.80
2022-08-09T14:49:02.803Z,3.65
2022-08-09T14:51:31.337Z,4.65
2022-08-09T14:54:09.617Z,3.03
2022-08-09T14:56:57.398Z,3.38
2022-08-09T14:59:23.932Z,2.45
2022-08-09T15:01:50.928Z,4.93
2022-08-09T15:04:18.611Z,3.50
2022-08-09T15:06:49.725Z,4.15
2022-08-09T15:10:03.367Z,7.22
2022-08-09T15:12:05.204Z,3.10
2022-08-09T15:14:38.508Z,2.20
2022-08-09T15:17:09.670Z,3.20
2022-08-09T15:19:54.391Z,3.83
2022-08-09T15:22:26.110Z,2.53
2022-08-09T15:24:53.748Z,5.25
2022-08-09T15:27:21.969Z,3.38
2022-08-09T15:30:56.334Z,5.00
2022-08-09T15:32:36.594Z,2.78
2022-08-09T15:35:18.374Z,2.83
2022-08-09T15:37:57.157Z,3.70
2022-08-09T15:46:07.243Z,2.85
2022-08-09T15:48:30.801Z,4.45
2022-08-09T15:51:01.943Z,3.92
2022-08-09T15:54:03.885Z,7.47
2022-08-09T16:37:52.926Z,3.63
2022-08-09T16:40:20.420Z,2.88
2022-08-09T16:42:58.183Z,3.15
2022-08-09T16:45:25.311Z,3.28
2022-08-09T16:48:38.161Z,3.58
2022-08-09T20:09:50.055Z,6.80
2022-08-09T20:12:29.784Z,7.60
2022-08-09T20:16:31.597Z,5.25
2022-08-09T20:38:22.542Z,8.60
2022-08-09T20:40:35.554Z,11.13
2022-08-09T20:43:19.123Z,9.83
2022-08-09T20:46:01.767Z,9.70
2022-08-09T20:48:38.445Z,8.55
2022-08-09T20:51:06.849Z,11.63
2022-08-09T20:53:36.663Z,9.57
2022-08-09T20:56:21.302Z,12.07
2022-08-09T20:58:58.309Z,10.60
2022-08-09T21:01:35.286Z,10.55
2022-08-09T21:05:54.030Z,12.60
2022-08-09T21:07:11.634Z,11.25
2022-08-09T21:09:56.412Z,10.38
2022-08-09T21:15:23.804Z,9.48
2022-08-09T21:18:20.758Z,9.40
2022-08-09T21:20:50.281Z,10.73
2022-08-09T21:23:22.049Z,13.65
2022-08-09T21:26:03.179Z,10.63
2022-08-09T21:28:36.122Z,12.13
2022-08-09T21:31:16.213Z,11.68
2022-08-09T21:33:51.327Z,12.25
2022-08-09T21:36:27.922Z,12.20
2022-08-09T21:38:57.614Z,13.68
2022-08-09T21:42:03.631Z,12.13
2022-08-09T21:44:33.356Z,10.55
2022-08-09T21:47:07.882Z,13.48
2022-08-09T21:49:40.430Z,11.15
2022-08-09T21:52:17.815Z,11.35
2022-08-09T21:55:03.747Z,12.50
2022-08-09T21:57:37.509Z,12.35
2022-08-09T22:00:25.726Z,12.85
2022-08-09T22:02:58.934Z,12.20
2022-08-09T22:05:35.615Z,14.60
2022-08-09T22:08:13.697Z,11.80
2022-08-09T22:11:48.809Z,12.93
2022-08-09T22:13:31.394Z,14.90
2022-08-09T22:16:03.764Z,12.88
2022-08-09T22:18:33.078Z,13.23
2022-08-09T22:21:01.299Z,17.02
2022-08-09T22:23:35.407Z,13.60
2022-08-09T22:26:08.369Z,14.98
2022-08-09T22:28:47.115Z,18.13
2022-08-09T22:31:20.845Z,15.02
2022-08-09T22:33:55.373Z,14.02
2022-08-09T22:36:23.604Z,15.88
2022-08-09T22:38:50.689Z,16.00
2022-08-09T22:41:19.301Z,17.17
2022-08-09T22:44:02.012Z,15.63
2022-08-09T22:48:11.600Z,18.40
2022-08-09T22:49:19.127Z,17.70
2022-08-09T22:51:49.883Z,15.35
2022-08-09T22:54:26.856Z,19.35
2022-08-09T22:56:56.634Z,19.13
2022-08-09T22:59:58.161Z,19.40
2022-08-09T23:02:15.928Z,18.65
2022-08-09T23:04:53.679Z,19.15
2022-08-09T23:08:21.962Z,17.58
2022-08-09T23:10:28.523Z,18.70
2022-08-09T23:12:55.423Z,20.08
2022-08-09T23:15:22.387Z,20.38
2022-08-09T23:17:49.246Z,20.70
2022-08-09T23:20:16.442Z,20.40
2022-08-09T23:22:43.306Z,21.40
2022-08-09T23:25:11.042Z,21.77
2022-08-09T23:28:09.321Z,21.30
2022-08-09T23:30:25.297Z,22.35
2022-08-09T23:32:52.306Z,27.05
2022-08-09T23:35:19.229Z,24.63
2022-08-09T23:37:46.125Z,29.17
2022-08-09T23:40:13.358Z,26.73
2022-08-09T23:42:40.707Z,25.00
2022-08-09T23:45:08.965Z,23.52
2022-08-09T23:47:37.090Z,24.50
2022-08-09T23:50:04.715Z,26.77
2022-08-09T23:52:31.659Z,26.40
2022-08-09T23:55:00.170Z,27.52
2022-08-09T23:57:27.315Z,26.83
